Time;durP1;ratioP1;P1;durP2;ratioP2;P2;SDS_P1;SDS_P2;PMS_P1;PMS_P2;Temp;Humidity;BMP_temperature;BMP_pressure;BME280_temperature;BME280_humidity;BME280_pressure;Samples;Min_cycle;Max_cycle;Signal;HPM_P1;HPM_P2
2023/12/21 00:02:00;;;;;;;125.00;52.10;;;;;;;-141.97;100.00;46594.69;5016399;28;20235;-84
2023/12/21 00:04:25;;;;;;;119.93;50.53;;;;;;;-141.97;100.00;46362.22;4950592;29;20630;-83
2023/12/21 00:06:51;;;;;;;127.50;54.70;;;;;;;-141.97;100.00;46310.31;4950162;29;20652;-84
2023/12/21 00:09:17;;;;;;;129.83;52.73;;;;;;;-141.97;100.00;46264.22;5016140;28;20572;-83
2023/12/21 00:11:42;;;;;;;127.87;52.87;;;;;;;-141.97;100.00;46294.97;4950158;29;20169;-85
2023/12/21 00:14:07;;;;;;;113.57;48.00;;;;;;;-141.97;100.00;46070.16;4950120;29;20259;-85
2023/12/21 00:16:33;;;;;;;116.20;48.07;;;;;;;-141.97;100.00;46193.13;4950021;29;20161;-85
2023/12/21 00:18:58;;;;;;;114.97;46.27;;;;;;;-141.97;100.00;46066.31;4950417;29;20251;-85
2023/12/21 00:21:24;;;;;;;110.10;47.30;;;;;;;-141.97;100.00;46273.81;4949981;29;20168;-85
2023/12/21 00:23:49;;;;;;;108.87;47.83;;;;;;;-141.97;100.00;46062.47;4949852;28;20252;-84
2023/12/21 00:26:14;;;;;;;102.73;45.60;;;;;;;-141.97;100.00;46621.59;5032418;28;20169;-85
2023/12/21 00:28:40;;;;;;;99.43;43.10;;;;;;;-141.97;100.00;45989.47;4949642;29;20169;-85
2023/12/21 00:31:05;;;;;;;106.60;46.23;;;;;;;-141.97;100.00;46585.09;4949821;28;20360;-84
2023/12/21 00:33:31;;;;;;;103.90;44.17;;;;;;;-141.97;100.00;46585.09;4949898;28;20207;-84
2023/12/21 00:35:56;;;;;;;101.83;45.67;;;;;;;-141.97;100.00;46231.56;4949673;29;20641;-85
2023/12/21 00:38:21;;;;;;;104.27;44.17;;;;;;;-141.97;100.00;46131.66;4949670;29;20282;-84
2023/12/21 00:40:47;;;;;;;97.73;42.53;;;;;;;-141.97;100.00;46277.66;4949483;29;20192;-84
2023/12/21 00:43:12;;;;;;;105.33;44.97;;;;;;;-141.97;100.00;46273.81;4949383;29;20161;-85
2023/12/21 00:45:38;;;;;;;105.30;45.17;;;;;;;-141.97;100.00;46231.56;4949741;28;20177;-84
2023/12/21 00:48:03;;;;;;;110.30;46.20;;;;;;;-141.97;100.00;46268.06;5015637;28;20169;-84
2023/12/21 00:50:29;;;;;;;95.57;43.73;;;;;;;-141.97;100.00;46283.44;4949293;29;20199;-84
2023/12/21 00:52:54;;;;;;;107.77;46.20;;;;;;;-141.97;100.00;46258.44;5015702;28;20176;-84
2023/12/21 00:55:20;;;;;;;110.07;44.33;;;;;;;-141.97;100.00;46212.34;4949260;29;20652;-85
2023/12/21 00:57:45;;;;;;;104.47;44.93;;;;;;;-141.97;100.00;46273.81;4949326;29;20165;-84
2023/12/21 01:00:11;;;;;;;99.03;43.50;;;;;;;-141.97;100.00;46266.13;4949359;29;20173;-84
2023/12/21 01:02:36;;;;;;;96.33;41.23;;;;;;;-141.97;100.00;46619.69;4949641;29;20180;-84
2023/12/21 01:05:03;;;;;;;84.73;36.87;;;;;;;-141.97;100.00;46152.78;4949650;28;20207;-85
2023/12/21 01:07:28;;;;;;;89.27;37.13;;;;;;;-141.97;100.00;46700.38;4950685;28;20165;-85
2023/12/21 01:09:54;;;;;;;88.47;38.97;;;;;;;-141.97;100.00;46291.13;4952671;29;20463;-85
2023/12/21 01:12:19;;;;;;;95.10;40.70;;;;;;;-141.97;100.00;46294.97;4953008;29;20176;-85
2023/12/21 01:14:45;;;;;;;87.60;40.30;;;;;;;-141.97;100.00;45993.31;4952737;29;20306;-84
2023/12/21 01:17:10;;;;;;;71.53;31.00;;;;;;;-141.97;100.00;45989.47;4952557;29;20247;-85
2023/12/21 01:19:35;;;;;;;78.40;35.50;;;;;;;-141.97;100.00;46617.75;4953100;29;20171;-84
2023/12/21 01:22:02;;;;;;;74.43;35.60;;;;;;;-141.97;100.00;46041.34;5019421;28;20177;-84
2023/12/21 01:24:27;;;;;;;76.43;34.53;;;;;;;-141.97;100.00;46319.94;4952757;28;20669;-84
2023/12/21 01:26:53;;;;;;;50.87;23.83;;;;;;;-141.97;100.00;46281.50;4953076;29;20415;-83
2023/12/21 01:29:18;;;;;;;51.87;22.87;;;;;;;-141.97;100.00;46293.03;5019564;28;20647;-84
2023/12/21 01:31:44;;;;;;;63.83;29.50;;;;;;;-141.97;100.00;46127.81;5020375;28;20743;-85
2023/12/21 01:34:09;;;;;;;60.67;25.70;;;;;;;-141.97;100.00;46519.75;4954332;29;20252;-84
2023/12/21 01:36:34;;;;;;;49.50;21.87;;;;;;;-141.97;100.00;46554.34;4953510;29;20684;-84
2023/12/21 01:39:00;;;;;;;41.63;19.70;;;;;;;-141.97;100.00;46058.63;4952768;29;20179;-85
2023/12/21 01:41:25;;;;;;;53.93;24.07;;;;;;;-141.97;100.00;46070.16;5036658;28;20267;-85
2023/12/21 01:43:51;;;;;;;56.23;26.40;;;;;;;-141.97;100.00;46258.44;5036561;28;20210;-85
2023/12/21 01:46:16;;;;;;;53.93;27.47;;;;;;;-141.97;100.00;46252.69;4953455;28;20682;-84
2023/12/21 01:48:43;;;;;;;56.37;27.90;;;;;;;-141.97;100.00;46619.69;4953582;28;20263;-86
2023/12/21 01:51:11;;;;;;;54.73;27.57;;;;;;;-141.97;100.00;46258.44;4954173;29;20189;-85
2023/12/21 01:53:38;;;;;;;52.87;24.53;;;;;;;-141.97;100.00;46400.63;4959632;28;20401;-85
2023/12/21 01:56:04;;;;;;;53.80;26.83;;;;;;;-141.97;100.00;45947.22;4975648;28;20416;-85
2023/12/21 01:58:31;;;;;;;55.93;26.73;;;;;;;-141.97;100.00;46254.59;4972514;28;20830;-84
2023/12/21 02:00:57;;;;;;;55.83;28.30;;;;;;;-141.97;100.00;46266.13;5035990;28;20810;-85
2023/12/21 02:03:24;;;;;;;54.27;25.03;;;;;;;-141.97;100.00;46262.28;4959411;29;20478;-84
2023/12/21 02:05:50;;;;;;;49.40;23.27;;;;;;;-141.97;100.00;46268.06;4963000;28;20413;-84
2023/12/21 02:08:15;;;;;;;49.37;26.23;;;;;;;-141.97;100.00;46269.97;4956515;28;20826;-84
2023/12/21 02:10:40;;;;;;;55.63;25.33;;;;;;;-141.97;100.00;46266.13;5020094;28;20189;-84
2023/12/21 02:13:06;;;;;;;56.37;25.30;;;;;;;-141.97;100.00;46041.34;4954448;29;20584;-85
2023/12/21 02:15:32;;;;;;;54.20;22.87;;;;;;;-141.97;100.00;46563.97;4953592;29;20622;-85
2023/12/21 02:18:01;;;;;;;60.07;27.00;;;;;;;-141.97;100.00;46489.03;5035830;28;20311;-85
2023/12/21 02:20:27;;;;;;;48.83;21.70;;;;;;;-141.97;100.00;46122.03;4954483;29;20219;-85
2023/12/21 02:22:56;;;;;;;47.77;22.70;;;;;;;-141.97;100.00;46508.22;5048280;28;20472;-85
2023/12/21 02:25:22;;;;;;;45.97;23.33;;;;;;;-141.97;100.00;45989.47;5048675;28;20496;-85
2023/12/21 02:27:51;;;;;;;48.00;22.13;;;;;;;-141.97;100.00;46275.75;5033446;28;20440;-85
2023/12/21 02:30:17;;;;;;;41.43;19.20;;;;;;;-141.97;100.00;46177.75;5033560;28;20467;-84
2023/12/21 02:32:43;;;;;;;40.23;20.30;;;;;;;-141.97;100.00;46243.09;5034532;28;20459;-86
2023/12/21 02:35:08;;;;;;;35.03;17.83;;;;;;;-141.97;100.00;46218.09;5034122;28;20916;-85
2023/12/21 02:37:33;;;;;;;42.33;20.03;;;;;;;-141.97;100.00;46573.56;5035854;28;20166;-85
2023/12/21 02:39:59;;;;;;;40.47;19.53;;;;;;;-141.97;100.00;46208.50;5034228;28;20271;-85
2023/12/21 02:42:24;;;;;;;45.37;21.83;;;;;;;-141.97;100.00;46093.22;5035338;28;20550;-83
2023/12/21 02:44:49;;;;;;;42.40;21.80;;;;;;;-141.97;100.00;46112.44;5033478;28;20177;-85
2023/12/21 02:47:15;;;;;;;35.40;18.50;;;;;;;-141.97;100.00;45985.63;5033169;28;20257;-84
2023/12/21 02:49:40;;;;;;;36.20;18.17;;;;;;;-141.97;100.00;46212.34;5033399;28;20193;-85
2023/12/21 02:52:06;;;;;;;36.20;17.00;;;;;;;-141.97;100.00;46133.56;5033204;28;20285;-85
2023/12/21 02:54:31;;;;;;;32.27;16.07;;;;;;;-141.97;100.00;46254.59;5033539;28;20174;-86
2023/12/21 02:56:57;;;;;;;32.07;16.97;;;;;;;-141.97;100.00;46154.69;5048162;28;20174;-85
2023/12/21 02:59:22;;;;;;;31.53;16.40;;;;;;;-141.97;100.00;45929.91;5031623;28;20166;-84
2023/12/21 03:01:48;;;;;;;30.87;15.57;;;;;;;-141.97;100.00;46200.81;5048503;28;20249;-86
2023/12/21 03:04:13;;;;;;;32.33;14.73;;;;;;;-141.97;100.00;46565.88;5033041;28;20181;-84
2023/12/21 03:06:39;;;;;;;31.33;15.17;;;;;;;-141.97;100.00;46070.16;5032760;28;20158;-85
2023/12/21 03:09:04;;;;;;;26.13;14.67;;;;;;;-141.97;100.00;46239.25;5033056;28;20528;-85
2023/12/21 03:11:30;;;;;;;30.60;14.30;;;;;;;-141.97;100.00;46654.28;5049025;28;20177;-85
2023/12/21 03:13:55;;;;;;;29.83;15.20;;;;;;;-141.97;100.00;46102.81;5032636;28;20166;-85
2023/12/21 03:16:21;;;;;;;35.77;16.20;;;;;;;-141.97;100.00;46135.50;5032760;28;20619;-85
2023/12/21 03:18:47;;;;;;;26.40;12.13;;;;;;;-141.97;100.00;46248.84;5032401;28;20581;-86
2023/12/21 03:21:14;;;;;;;29.37;14.40;;;;;;;-141.97;100.00;46083.63;5032638;28;20194;-85
2023/12/21 03:23:41;;;;;;;30.13;16.90;;;;;;;-141.97;100.00;46273.81;4979458;28;20529;-86
2023/12/21 03:26:08;;;;;;;58.93;25.90;;;;;;;-141.97;100.00;46531.28;4951469;28;20416;-86
2023/12/21 03:28:33;;;;;;;33.57;15.50;;;;;;;-141.97;100.00;46629.28;4950974;29;20427;-86
2023/12/21 03:31:00;;;;;;;29.03;14.13;;;;;;;-141.97;100.00;46256.53;4950009;29;20448;-86
2023/12/21 03:33:25;;;;;;;25.50;11.97;;;;;;;-141.97;100.00;46525.53;4951527;29;20216;-85
2023/12/21 03:35:51;;;;;;;22.80;11.13;;;;;;;-141.97;100.00;46012.53;4951752;29;20535;-86
2023/12/21 03:38:16;;;;;;;21.73;10.13;;;;;;;-141.97;100.00;46214.25;4951511;29;20194;-86
2023/12/21 03:40:42;;;;;;;18.83;9.03;;;;;;;-141.97;100.00;46125.88;4951057;28;20160;-86
2023/12/21 03:43:07;;;;;;;26.07;11.83;;;;;;;-141.97;100.00;46093.22;4951017;28;20525;-86
2023/12/21 03:45:35;;;;;;;25.13;10.57;;;;;;;-141.97;100.00;46050.97;4950666;29;20202;-86
2023/12/21 03:48:00;;;;;;;23.03;11.13;;;;;;;-141.97;100.00;46471.72;4950713;28;20185;-85
2023/12/21 03:50:26;;;;;;;27.33;13.00;;;;;;;-141.97;99.00;46093.22;4950519;29;20459;-85
2023/12/21 03:52:51;;;;;;;19.13;8.73;;;;;;;-141.97;96.39;45908.78;4950831;29;20245;-85
2023/12/21 03:55:16;;;;;;;24.87;12.37;;;;;;;-141.97;94.47;46158.53;4950256;29;20251;-85
2023/12/21 03:57:42;;;;;;;24.33;11.60;;;;;;;-141.97;93.47;46195.06;5016715;28;20177;-84
2023/12/21 04:00:08;;;;;;;18.63;9.00;;;;;;;-141.97;92.03;46058.63;4950706;28;20626;-85
2023/12/21 04:02:36;;;;;;;20.97;11.00;;;;;;;-141.97;90.93;46127.81;4950563;28;20248;-85
2023/12/21 04:05:02;;;;;;;23.10;10.47;;;;;;;-141.97;90.39;46162.38;5016374;28;20446;-84
2023/12/21 04:07:27;;;;;;;19.90;10.90;;;;;;;-141.97;89.67;45997.16;5016762;28;20574;-84
2023/12/21 04:09:53;;;;;;;13.70;6.90;;;;;;;-141.97;88.79;46196.97;4950663;28;20189;-85
2023/12/21 04:12:18;;;;;;;18.80;7.17;;;;;;;-141.97;88.07;45943.38;4950472;28;20239;-85
2023/12/21 04:14:43;;;;;;;17.27;9.43;;;;;;;-141.97;88.27;46052.88;4950080;28;20223;-86
2023/12/21 04:17:09;;;;;;;17.20;9.17;;;;;;;-141.97;88.04;45901.09;5016134;28;20212;-86
2023/12/21 04:19:34;;;;;;;18.93;10.13;;;;;;;-141.97;87.90;45995.25;4950224;28;20168;-85
2023/12/21 04:22:00;;;;;;;19.93;9.57;;;;;;;-141.97;87.73;46487.09;4950211;29;20680;-86
2023/12/21 04:24:25;;;;;;;17.43;8.80;;;;;;;-141.97;87.86;46477.50;4950038;28;20220;-85
2023/12/21 04:26:51;;;;;;;17.17;8.93;;;;;;;-141.97;87.59;46162.38;4950451;28;20248;-85
2023/12/21 04:29:16;;;;;;;16.73;8.70;;;;;;;-141.97;88.19;46064.41;5016118;28;20216;-85
2023/12/21 04:31:44;;;;;;;12.73;7.40;;;;;;;-141.97;88.26;46031.75;4949661;28;20554;-85
2023/12/21 04:34:10;;;;;;;21.33;9.77;;;;;;;-141.97;88.12;45989.47;5016145;28;20204;-85
2023/12/21 04:36:36;;;;;;;11.97;6.53;;;;;;;-141.97;87.79;46508.22;5032187;28;20455;-86
2023/12/21 04:39:01;;;;;;;17.40;9.10;;;;;;;-141.97;87.13;45939.53;4950083;28;20176;-85
2023/12/21 04:41:26;;;;;;;13.57;7.10;;;;;;;-141.97;86.67;46558.19;4949759;28;20192;-85
2023/12/21 04:43:52;;;;;;;18.07;8.70;;;;;;;-141.97;85.61;45993.31;4949859;28;20183;-86
2023/12/21 04:46:17;;;;;;;15.23;7.47;;;;;;;-141.97;84.54;46012.53;4949712;28;20638;-86
2023/12/21 04:48:43;;;;;;;16.03;8.03;;;;;;;-141.97;84.17;46089.38;4949723;28;20263;-87
2023/12/21 04:51:16;;;;;;;19.23;9.70;;;;;;;-141.97;84.38;46193.13;4949503;28;20196;-85
2023/12/21 04:53:42;;;;;;;19.33;10.80;;;;;;;-141.97;84.24;46462.13;4949332;28;20248;-85
2023/12/21 04:56:07;;;;;;;14.40;8.03;;;;;;;-141.97;84.40;46108.59;4949668;29;20318;-85
2023/12/21 04:58:32;;;;;;;17.03;8.93;;;;;;;-141.97;84.70;46089.38;5033027;28;20177;-83
2023/12/21 05:00:58;;;;;;;21.90;11.20;;;;;;;-141.97;85.44;46164.31;4950148;28;20165;-85
2023/12/21 05:03:24;;;;;;;18.47;10.40;;;;;;;-141.97;85.40;46433.28;4949211;29;20276;-86
2023/12/21 05:05:49;;;;;;;19.43;9.77;;;;;;;-141.97;85.79;46116.28;5015660;28;20179;-85
2023/12/21 05:08:15;;;;;;;23.63;11.37;;;;;;;-141.97;86.63;46148.94;4949278;28;20169;-84
2023/12/21 05:10:40;;;;;;;27.93;13.57;;;;;;;-141.97;87.30;46173.91;4949525;29;20188;-86
2023/12/21 05:13:06;;;;;;;30.77;14.67;;;;;;;-141.97;87.63;46047.13;5031911;28;20200;-85
2023/12/21 05:15:31;;;;;;;30.27;14.53;;;;;;;-141.97;88.31;46052.88;5032268;28;20196;-85
2023/12/21 05:17:57;;;;;;;38.43;15.30;;;;;;;-141.97;88.65;46173.91;4948787;29;20231;-85
2023/12/21 05:20:22;;;;;;;30.53;14.50;;;;;;;-141.97;88.35;45874.22;4949272;29;20160;-84
2023/12/21 05:22:47;;;;;;;32.73;14.07;;;;;;;-141.97;88.92;46039.44;4948989;28;20225;-85
2023/12/21 05:25:16;;;;;;;28.63;13.10;;;;;;;-141.97;89.03;45989.47;4948993;29;20251;-85
2023/12/21 05:27:41;;;;;;;32.57;14.50;;;;;;;-141.97;89.67;46638.91;5016457;28;20262;-84
2023/12/21 05:30:07;;;;;;;36.00;17.77;;;;;;;-141.97;90.20;45928.00;4951732;28;20860;-83
2023/12/21 05:32:33;;;;;;;27.63;13.90;;;;;;;-141.97;90.49;46623.53;4949300;28;20631;-84
2023/12/21 05:34:58;;;;;;;33.53;16.97;;;;;;;-141.97;91.06;46177.75;4949301;28;20177;-83
2023/12/21 05:37:25;;;;;;;29.00;14.83;;;;;;;-141.97;91.24;46060.56;4949093;29;20184;-82
2023/12/21 05:39:51;;;;;;;34.80;17.60;;;;;;;-141.97;91.66;45851.16;5014931;28;20248;-82
2023/12/21 05:42:16;;;;;;;38.27;18.27;;;;;;;-141.97;92.59;46195.06;4949020;28;20420;-84
2023/12/21 05:44:41;;;;;;;33.43;14.83;;;;;;;-141.97;93.77;46558.19;4948962;28;20602;-84
2023/12/21 05:47:07;;;;;;;32.07;15.47;;;;;;;-141.97;93.96;45851.16;4949214;28;20191;-83
2023/12/21 05:49:32;;;;;;;39.47;18.93;;;;;;;-141.97;94.50;45970.25;4948970;28;20567;-82
2023/12/21 05:51:59;;;;;;;37.27;17.63;;;;;;;-141.97;94.73;46183.53;4948737;28;20176;-83
2023/12/21 05:54:24;;;;;;;31.50;14.50;;;;;;;-141.97;95.04;46398.72;5017728;28;20275;-83
2023/12/21 05:56:50;;;;;;;35.40;18.33;;;;;;;-141.97;94.89;46185.44;4952188;28;20861;-83
2023/12/21 05:59:16;;;;;;;37.87;18.93;;;;;;;-141.97;95.26;46135.50;4952253;28;20180;-84
2023/12/21 06:01:42;;;;;;;44.13;20.23;;;;;;;-141.97;95.15;46045.19;5018096;28;20569;-82
2023/12/21 06:04:08;;;;;;;29.87;13.20;;;;;;;-141.97;95.76;46125.88;5018420;28;20164;-83
2023/12/21 06:06:33;;;;;;;33.63;16.13;;;;;;;-141.97;95.51;46708.06;5018192;28;20884;-81
2023/12/21 06:08:58;;;;;;;38.73;17.67;;;;;;;-141.97;95.89;45883.81;5034596;28;20173;-82
2023/12/21 06:11:24;;;;;;;31.83;16.27;;;;;;;-141.97;95.86;46483.25;4952221;29;20169;-83
2023/12/21 06:13:49;;;;;;;37.67;17.83;;;;;;;-141.97;95.93;46133.56;4952088;28;20550;-83
2023/12/21 06:16:15;;;;;;;33.30;13.87;;;;;;;-141.97;96.10;46039.44;4952377;29;20161;-85
2023/12/21 06:18:41;;;;;;;35.03;17.00;;;;;;;-141.97;96.28;46612.00;4951778;29;20211;-84
2023/12/21 06:21:06;;;;;;;28.10;13.43;;;;;;;-141.97;95.87;46118.19;5017806;28;20223;-84
2023/12/21 06:23:32;;;;;;;30.97;15.03;;;;;;;-141.97;95.68;46135.50;4960241;28;20452;-83
2023/12/21 06:25:58;;;;;;;30.60;14.73;;;;;;;-141.97;94.86;46074.00;4963944;28;20165;-84
2023/12/21 06:28:24;;;;;;;26.77;12.37;;;;;;;-141.97;94.40;45977.94;4952589;28;20408;-84
2023/12/21 06:30:49;;;;;;;32.83;13.43;;;;;;;-141.97;93.79;46150.84;5018439;28;20176;-83
2023/12/21 06:33:14;;;;;;;44.17;19.33;;;;;;;-141.97;92.22;46565.88;5039043;28;20165;-83
2023/12/21 06:35:40;;;;;;;27.43;12.83;;;;;;;-141.97;91.52;46617.75;4973692;28;20157;-84
2023/12/21 06:38:06;;;;;;;27.40;13.03;;;;;;;-141.97;90.83;45952.97;4970065;28;20247;-85
2023/12/21 06:40:32;;;;;;;27.50;15.10;;;;;;;-141.97;90.98;46166.22;4960759;28;20189;-84
2023/12/21 06:42:57;;;;;;;28.40;13.17;;;;;;;-141.97;91.03;46020.22;4959276;28;20550;-85
2023/12/21 06:45:23;;;;;;;28.53;14.33;;;;;;;-141.97;90.79;46596.63;4956470;28;20172;-84
2023/12/21 06:47:48;;;;;;;32.80;15.00;;;;;;;-141.97;90.74;46496.72;4953212;28;20652;-83
2023/12/21 06:50:13;;;;;;;28.63;14.07;;;;;;;-141.97;90.34;45956.81;4967285;28;20169;-84
2023/12/21 06:52:39;;;;;;;33.33;15.70;;;;;;;-141.97;89.97;46137.41;4951584;28;20172;-85
2023/12/21 06:55:05;;;;;;;25.87;11.00;;;;;;;-141.97;88.43;45954.91;4951354;29;20173;-83
2023/12/21 06:57:31;;;;;;;52.53;21.33;;;;;;;-141.97;84.07;46123.97;4951236;28;20295;-84
2023/12/21 06:59:56;;;;;;;64.33;20.87;;;;;;;-141.97;79.50;45914.56;4951138;28;20200;-83
2023/12/21 07:02:22;;;;;;;26.50;13.00;;;;;;;-141.97;77.62;46427.53;4951040;28;20222;-84
2023/12/21 07:04:47;;;;;;;27.77;13.90;;;;;;;-141.97;77.47;46588.94;4953357;28;20218;-84
2023/12/21 07:07:13;;;;;;;28.30;14.50;;;;;;;-141.97;76.86;45893.41;4957628;28;20230;-84
2023/12/21 07:09:39;;;;;;;28.43;14.97;;;;;;;-141.97;75.71;46058.63;4950772;28;20185;-84
2023/12/21 07:12:05;;;;;;;26.13;13.07;;;;;;;-141.97;74.23;46002.94;4951927;29;20173;-84
2023/12/21 07:14:31;;;;;;;26.40;13.33;;;;;;;-141.97;74.16;46070.16;4951762;28;20160;-85
2023/12/21 07:16:56;;;;;;;29.60;13.97;;;;;;;-141.97;75.82;46049.03;4951191;28;20175;-84
2023/12/21 07:19:22;;;;;;;24.07;11.53;;;;;;;-141.97;74.88;46104.75;4949227;28;20253;-83
2023/12/21 07:21:47;;;;;;;28.83;14.20;;;;;;;-141.97;74.51;45993.31;4951739;28;20165;-83
2023/12/21 07:24:13;;;;;;;27.20;13.43;;;;;;;-141.97;73.68;46045.19;4965051;28;20611;-84
2023/12/21 07:26:38;;;;;;;23.40;13.00;;;;;;;-141.97;71.90;46068.25;4948424;28;20590;-84
2023/12/21 07:29:03;;;;;;;26.87;14.17;;;;;;;-141.97;72.46;46054.81;4965173;28;20281;-85
2023/12/21 07:31:29;;;;;;;24.63;12.77;;;;;;;-141.97;76.03;46168.16;4949249;28;20172;-86
2023/12/21 07:33:54;;;;;;;28.13;13.33;;;;;;;-141.97;78.25;46377.56;4951793;29;20606;-83
2023/12/21 07:36:20;;;;;;;22.60;11.33;;;;;;;-141.97;79.56;46123.97;4950812;28;20185;-84
2023/12/21 07:38:45;;;;;;;32.83;13.57;;;;;;;-141.97;80.04;45933.75;4950995;29;20173;-84
2023/12/21 07:41:11;;;;;;;28.70;13.70;;;;;;;-141.97;79.95;46537.06;4954051;29;20239;-84
2023/12/21 07:43:37;;;;;;;27.93;13.87;;;;;;;-141.97;79.54;45943.38;4950062;29;20169;-85
2023/12/21 07:46:03;;;;;;;25.90;13.73;;;;;;;-141.97;78.77;46546.66;4951026;28;20708;-83
2023/12/21 07:48:28;;;;;;;22.47;10.27;;;;;;;-141.97;79.17;45954.91;5033309;28;20177;-83
2023/12/21 07:50:54;;;;;;;19.57;9.80;;;;;;;-141.97;78.90;46254.59;5015753;28;20585;-84
2023/12/21 07:53:19;;;;;;;28.17;13.17;;;;;;;-141.97;78.51;45943.38;5014709;28;20653;-85
2023/12/21 07:55:45;;;;;;;27.37;14.47;;;;;;;-141.97;78.22;45929.91;4949912;29;20169;-85
2023/12/21 07:58:10;;;;;;;25.80;12.43;;;;;;;-141.97;78.33;46114.34;4949884;29;20197;-86
2023/12/21 08:00:36;;;;;;;36.80;17.23;;;;;;;-141.97;77.80;46093.22;4949709;28;20193;-84
2023/12/21 08:03:01;;;;;;;26.37;13.37;;;;;;;-141.97;77.51;46588.94;4949516;29;20157;-84
2023/12/21 08:05:28;;;;;;;19.57;11.43;;;;;;;-141.97;76.89;45964.50;4949349;29;20196;-87
2023/12/21 08:07:53;;;;;;;30.43;15.33;;;;;;;-141.97;75.94;46523.59;5032369;28;20625;-87
2023/12/21 08:10:19;;;;;;;22.53;11.07;;;;;;;-141.97;75.66;46072.09;5015695;28;20181;-86
2023/12/21 08:12:44;;;;;;;23.10;10.63;;;;;;;-141.97;76.27;46581.25;4950085;28;20752;-87
2023/12/21 08:15:10;;;;;;;23.50;12.23;;;;;;;-141.97;75.73;45962.59;5014851;28;20189;-86
2023/12/21 08:17:36;;;;;;;19.60;10.37;;;;;;;-141.97;75.68;46037.50;4942522;28;20200;-88
2023/12/21 08:20:04;;;;;;;30.17;16.57;;;;;;;-141.97;74.66;45891.50;5002856;28;20696;-88
2023/12/21 08:22:30;;;;;;;27.37;14.97;;;;;;;-141.97;74.73;46552.44;5015338;28;20244;-86
2023/12/21 08:24:57;;;;;;;23.60;12.53;;;;;;;-141.97;75.03;46016.38;4967393;28;20199;-87
2023/12/21 08:27:23;;;;;;;23.73;11.63;;;;;;;-141.97;73.76;46588.94;4948665;28;20185;-86
2023/12/21 08:29:49;;;;;;;21.20;11.43;;;;;;;-141.97;73.25;46529.38;4966275;28;20195;-86
2023/12/21 08:32:14;;;;;;;21.20;9.80;;;;;;;-141.97;72.84;45951.06;4963158;28;20195;-87
2023/12/21 08:34:40;;;;;;;20.23;10.47;;;;;;;-141.97;72.77;45851.16;4948420;29;20692;-86
2023/12/21 08:37:05;;;;;;;25.77;13.50;;;;;;;-141.97;72.52;46031.75;5032589;28;20666;-84
2023/12/21 08:39:30;;;;;;;21.73;11.93;;;;;;;-141.97;71.71;46006.78;5050844;28;20185;-86
2023/12/21 08:41:56;;;;;;;28.10;14.10;;;;;;;-141.97;71.75;46412.16;5021018;28;20227;-87
2023/12/21 08:44:21;;;;;;;32.30;13.90;;;;;;;-141.97;70.77;45926.06;4954292;29;20176;-85
2023/12/21 08:46:47;;;;;;;17.70;10.60;;;;;;;-141.97;71.24;46123.97;4952783;29;20597;-85
2023/12/21 08:49:12;;;;;;;18.53;8.97;;;;;;;-141.97;71.41;45995.25;4952825;29;20163;-86
2023/12/21 08:51:38;;;;;;;20.77;12.30;;;;;;;-141.97;70.76;45929.91;5014982;28;20670;-86
2023/12/21 08:54:05;;;;;;;26.40;13.73;;;;;;;-141.97;70.17;45881.91;4966605;28;20180;-86
2023/12/21 08:56:33;;;;;;;31.30;13.37;;;;;;;-141.97;70.11;46302.66;4954611;28;20211;-85
2023/12/21 08:59:00;;;;;;;20.37;11.23;;;;;;;-141.97;69.08;46085.53;4964034;28;20169;-87
2023/12/21 09:01:25;;;;;;;22.17;12.00;;;;;;;-141.97;69.10;46066.31;4950087;28;20200;-85
2023/12/21 09:03:50;;;;;;;27.77;13.83;;;;;;;-141.97;69.63;46054.81;5017065;28;20187;-86
2023/12/21 09:06:16;;;;;;;27.07;13.27;;;;;;;-141.97;68.76;45931.84;4950252;28;20172;-86
2023/12/21 09:08:41;;;;;;;19.20;9.50;;;;;;;-141.97;68.98;46319.94;5016254;28;20181;-85
2023/12/21 09:11:07;;;;;;;22.03;11.40;;;;;;;-141.97;68.97;46446.75;5032287;28;20202;-86
2023/12/21 09:13:32;;;;;;;17.40;10.33;;;;;;;-141.97;68.91;45897.25;5014831;28;20173;-85
2023/12/21 09:15:59;;;;;;;21.37;11.00;;;;;;;-141.97;68.03;46072.09;4959373;28;20181;-85
2023/12/21 09:18:24;;;;;;;30.63;14.97;;;;;;;-141.97;67.95;46054.81;4949470;28;20212;-84
2023/12/21 09:20:50;;;;;;;19.93;9.13;;;;;;;-141.97;57.83;46056.72;4947787;28;20205;-84
2023/12/21 09:23:15;;;;;;;16.17;8.77;;;;;;;-141.97;58.24;46296.88;5021058;28;20232;-84
2023/12/21 09:25:40;;;;;;;17.93;10.53;;;;;;;-141.97;57.43;45724.38;4997371;28;20284;-85
2023/12/21 09:28:06;;;;;;;24.97;13.00;;;;;;;-141.97;58.11;45860.75;4948948;28;20177;-85
2023/12/21 09:30:32;;;;;;;27.13;15.37;;;;;;;-141.97;56.95;46450.59;5033257;28;20216;-85
2023/12/21 09:33:00;;;;;;;21.77;12.20;;;;;;;-141.97;56.60;46243.09;4962230;28;20196;-85
2023/12/21 09:35:29;;;;;;;19.00;11.93;;;;;;;-141.97;57.22;46041.34;4986948;28;20176;-85
2023/12/21 09:37:55;;;;;;;17.60;11.13;;;;;;;-141.97;57.02;46027.91;5018926;28;20184;-85
2023/12/21 09:40:24;;;;;;;23.07;12.70;;;;;;;-141.97;56.73;45766.63;5042097;28;20208;-85
2023/12/21 09:42:53;;;;;;;17.90;9.57;;;;;;;-141.97;55.89;45839.63;4999996;28;20534;-87
2023/12/21 09:45:20;;;;;;;25.77;12.77;;;;;;;-141.97;56.43;45808.91;5039461;28;20174;-86
2023/12/21 09:47:49;;;;;;;20.90;10.67;;;;;;;-141.97;56.48;45845.41;5052222;28;20214;-85
2023/12/21 09:50:16;;;;;;;15.63;9.03;;;;;;;-141.97;56.71;45862.69;5052572;28;20174;-87
2023/12/21 09:52:43;;;;;;;22.70;11.27;;;;;;;-141.97;56.76;45820.41;5003429;28;20218;-85
2023/12/21 09:55:10;;;;;;;21.67;10.60;;;;;;;-141.97;56.90;45866.53;5028987;28;20173;-85
2023/12/21 09:57:37;;;;;;;13.73;8.07;;;;;;;-141.97;56.52;46018.28;5053761;28;20166;-85
2023/12/21 10:00:03;;;;;;;16.43;9.00;;;;;;;-141.97;56.44;46027.91;5052711;28;20213;-85
2023/12/21 10:02:31;;;;;;;15.40;9.47;;;;;;;-141.97;56.13;45847.31;5013580;28;20177;-85
2023/12/21 10:04:57;;;;;;;17.57;10.67;;;;;;;-141.97;55.66;45874.22;5007688;28;20626;-86
2023/12/21 10:07:23;;;;;;;19.27;10.37;;;;;;;-141.97;56.36;45920.31;5035967;28;20242;-85
2023/12/21 10:09:49;;;;;;;19.13;10.87;;;;;;;-141.97;56.04;45989.47;5051885;28;20179;-86
2023/12/21 10:12:14;;;;;;;21.27;11.03;;;;;;;-141.97;55.51;46392.94;5044352;28;20177;-85
2023/12/21 10:14:40;;;;;;;28.73;15.23;;;;;;;-141.97;54.75;45970.25;5002833;28;20196;-86
2023/12/21 10:17:09;;;;;;;20.87;11.07;;;;;;;-141.97;53.90;45889.56;5037379;28;20181;-85
2023/12/21 10:19:44;;;;;;;20.57;10.07;;;;;;;-141.97;53.10;45891.50;5053487;28;20181;-85
2023/12/21 10:22:09;;;;;;;24.83;12.20;;;;;;;-141.97;53.13;45962.59;5055709;28;20169;-87
2023/12/21 10:24:36;;;;;;;23.50;11.10;;;;;;;-141.97;52.80;45995.25;5002018;28;20556;-86
2023/12/21 10:27:03;;;;;;;30.73;15.23;;;;;;;-141.97;53.13;45814.66;5053839;28;20611;-86
2023/12/21 10:29:29;;;;;;;23.07;10.13;;;;;;;-141.97;52.41;45797.38;5035114;28;20317;-86
2023/12/21 10:31:56;;;;;;;30.00;14.00;;;;;;;-141.97;51.74;45847.31;5035579;28;20642;-87
2023/12/21 10:34:22;;;;;;;22.10;11.80;;;;;;;-141.97;51.76;45883.81;5026568;28;20181;-87
2023/12/21 10:36:48;;;;;;;16.77;9.00;;;;;;;-141.97;51.68;45947.22;5034206;28;20572;-84
2023/12/21 10:39:15;;;;;;;19.57;10.27;;;;;;;-141.97;51.10;45897.25;5050783;28;20165;-85
2023/12/21 10:41:44;;;;;;;12.97;7.87;;;;;;;-141.97;49.88;45999.09;5052013;28;20197;-85
2023/12/21 10:44:15;;;;;;;13.00;7.23;;;;;;;-141.97;50.06;46319.94;5011422;28;20253;-86
2023/12/21 10:46:44;;;;;;;14.23;7.43;;;;;;;-141.97;49.98;45951.06;5049978;28;20157;-84
2023/12/21 10:49:10;;;;;;;12.47;8.03;;;;;;;-141.97;50.01;46001.00;5041969;28;20196;-85
2023/12/21 10:51:37;;;;;;;12.87;6.40;;;;;;;-141.97;49.01;45843.47;5059343;28;20646;-85
2023/12/21 10:54:07;;;;;;;10.03;6.37;;;;;;;-141.97;49.09;45879.97;5003477;28;20181;-85